createdAt,value
2019-01-12T00:03:31.395Z,5.94
2019-01-12T00:08:33.057Z,5.95
2019-01-12T00:13:35.087Z,6.00
2019-01-12T00:18:36.619Z,5.98
2019-01-12T00:23:38.194Z,6.00
2019-01-12T00:28:40.253Z,6.00
2019-01-12T00:33:41.881Z,6.04
2019-01-12T00:38:43.406Z,6.03
2019-01-12T00:43:47.858Z,6.03
2019-01-12T00:48:49.395Z,6.00
2019-01-12T00:53:50.972Z,6.02
2019-01-12T00:58:52.506Z,6.02
2019-01-12T01:03:54.082Z,6.04
2019-01-12T01:08:55.632Z,6.05
2019-01-12T01:13:57.183Z,6.07
2019-01-12T01:18:58.757Z,6.08
2019-01-12T01:24:00.427Z,6.08
2019-01-12T01:29:01.960Z,6.05
2019-01-12T01:34:04.626Z,6.06
2019-01-12T01:39:07.552Z,6.04
2019-01-12T01:44:10.958Z,6.00
2019-01-12T01:49:12.496Z,6.03
2019-01-12T01:54:14.072Z,6.05
2019-01-12T01:59:15.639Z,6.07
2019-01-12T02:04:17.160Z,6.09
2019-01-12T02:09:18.718Z,6.12
2019-01-12T02:14:20.651Z,6.13
2019-01-12T02:19:23.316Z,6.09
2019-01-12T02:24:24.824Z,6.07
2019-01-12T02:29:26.530Z,6.08
2019-01-12T02:34:28.057Z,6.07
2019-01-12T02:39:29.942Z,6.06
2019-01-12T02:44:31.488Z,6.05
2019-01-12T02:49:33.099Z,6.08
2019-01-12T02:54:34.620Z,6.07
2019-01-12T02:59:36.176Z,6.04
2019-01-12T03:04:37.755Z,6.04
2019-01-12T03:09:39.260Z,6.00
2019-01-12T03:14:41.143Z,6.01
2019-01-12T03:19:42.685Z,6.00
2019-01-12T03:24:44.205Z,5.99
2019-01-12T03:29:45.780Z,5.99
2019-01-12T03:34:47.350Z,6.00
2019-01-12T03:39:48.867Z,6.02
2019-01-12T03:44:50.430Z,6.07
2019-01-12T03:49:51.929Z,6.06
2019-01-12T03:54:53.476Z,6.05
2019-01-12T03:59:55.046Z,6.06
2019-01-12T04:04:56.608Z,6.07
2019-01-12T04:09:58.254Z,6.06
2019-01-12T04:14:59.959Z,6.08
2019-01-12T04:20:01.869Z,6.08
2019-01-12T04:25:03.668Z,6.08
2019-01-12T04:30:08.385Z,6.07
2019-01-12T04:35:09.953Z,6.06
2019-01-12T04:40:16.586Z,6.04
2019-01-12T04:45:19.939Z,6.00
2019-01-12T04:50:21.468Z,6.01
2019-01-12T04:55:24.602Z,6.01
2019-01-12T05:00:26.151Z,5.99
2019-01-12T05:05:27.660Z,5.95
2019-01-12T05:10:29.206Z,5.88
2019-01-12T05:15:30.731Z,5.86
2019-01-12T05:20:33.602Z,5.83
2019-01-12T05:25:35.366Z,5.78
2019-01-12T05:30:36.915Z,5.76
2019-01-12T05:35:38.487Z,5.73
2019-01-12T05:40:41.916Z,5.71
2019-01-12T05:45:43.493Z,5.66
2019-01-12T05:50:46.138Z,5.65
2019-01-12T05:55:47.646Z,5.63
2019-01-12T06:00:49.276Z,5.61
2019-01-12T06:05:50.822Z,5.62
2019-01-12T06:10:52.772Z,5.61
2019-01-12T06:15:56.319Z,5.62
2019-01-12T06:20:57.948Z,5.64
2019-01-12T06:26:03.901Z,5.64
2019-01-12T06:31:03.150Z,5.63
2019-01-12T06:36:04.675Z,5.64
2019-01-12T06:41:07.410Z,5.59
2019-01-12T06:46:09.051Z,5.62
2019-01-12T06:51:10.652Z,5.63
2019-01-12T06:56:12.168Z,5.63
2019-01-12T07:01:14.902Z,5.64
2019-01-12T07:06:16.452Z,5.66
2019-01-12T07:11:18.035Z,5.71
2019-01-12T07:16:19.600Z,5.71
2019-01-12T07:21:21.153Z,5.71
2019-01-12T07:26:22.702Z,5.76
2019-01-12T07:31:25.409Z,5.80
2019-01-12T07:36:27.079Z,5.80
2019-01-12T07:41:28.681Z,5.81
2019-01-12T07:46:30.222Z,5.84
2019-01-12T07:51:31.772Z,5.86
2019-01-12T07:56:33.771Z,5.88
2019-01-12T08:01:35.349Z,5.92
2019-01-12T08:06:36.964Z,6.10
2019-01-12T08:11:46.132Z,6.06
2019-01-12T08:16:47.768Z,6.11
2019-01-12T08:21:49.280Z,6.18
2019-01-12T08:26:51.181Z,6.22
2019-01-12T08:31:53.508Z,6.29
2019-01-12T08:37:00.538Z,6.33
2019-01-12T08:42:02.123Z,6.32
2019-01-12T08:47:05.488Z,6.33
2019-01-12T08:52:07.041Z,6.34
2019-01-12T08:57:08.587Z,6.37
2019-01-12T09:02:12.028Z,6.43
2019-01-12T09:07:15.568Z,6.42
2019-01-12T09:12:18.385Z,6.40
2019-01-12T09:17:19.973Z,6.36
2019-01-12T09:22:21.570Z,6.42
2019-01-12T09:27:23.120Z,6.43
2019-01-12T09:32:24.836Z,6.41
2019-01-12T09:37:26.390Z,6.38
2019-01-12T09:42:28.199Z,6.36
2019-01-12T09:47:29.776Z,6.35
2019-01-12T09:52:31.383Z,6.34
2019-01-12T09:57:33.883Z,6.33
2019-01-12T10:02:35.821Z,6.37
2019-01-12T10:07:37.379Z,6.37
2019-01-12T10:12:39.096Z,6.34
2019-01-12T10:17:40.627Z,6.34
2019-01-12T10:22:42.761Z,6.38
2019-01-12T10:27:44.300Z,6.36
2019-01-12T10:32:45.890Z,6.35
2019-01-12T10:37:49.248Z,6.35
2019-01-12T10:42:52.578Z,6.37
2019-01-12T10:47:54.483Z,6.37
2019-01-12T10:52:55.961Z,6.37
2019-01-12T10:57:58.492Z,6.39
2019-01-12T11:03:01.841Z,6.43
2019-01-12T11:08:04.434Z,6.46
2019-01-12T11:13:08.156Z,6.53
2019-01-12T11:18:09.678Z,6.60
2019-01-12T11:23:11.371Z,6.68
2019-01-12T11:28:12.943Z,6.78
2019-01-12T11:33:14.534Z,6.77
2019-01-12T11:38:16.256Z,6.84
2019-01-12T11:43:17.864Z,6.88
2019-01-12T11:48:19.714Z,6.92
2019-01-12T11:53:21.677Z,6.95
2019-01-12T11:58:23.549Z,7.01
2019-01-12T12:03:25.111Z,7.02
2019-01-12T12:08:26.634Z,7.18
2019-01-12T12:13:28.186Z,7.20
2019-01-12T12:18:29.733Z,7.20
2019-01-12T12:23:31.275Z,7.23
2019-01-12T12:28:32.889Z,7.33
2019-01-12T12:33:34.492Z,7.34
2019-01-12T12:38:36.015Z,7.39
2019-01-12T12:43:37.676Z,7.43
2019-01-12T12:48:39.358Z,7.50
2019-01-12T12:53:40.976Z,7.49
2019-01-12T12:58:42.518Z,7.51
2019-01-12T13:03:44.051Z,7.55
2019-01-12T13:08:48.524Z,7.55
2019-01-12T13:13:51.814Z,7.57
2019-01-12T13:18:53.404Z,7.60
2019-01-12T13:23:55.086Z,7.64
2019-01-12T13:28:57.057Z,7.62
2019-01-12T13:33:59.048Z,7.62
2019-01-12T13:39:02.032Z,7.67
2019-01-12T13:44:03.642Z,7.69
2019-01-12T13:49:07.047Z,7.73
2019-01-12T13:54:10.423Z,7.78
2019-01-12T13:59:14.412Z,7.90
2019-01-12T14:04:16.199Z,7.90
2019-01-12T14:09:17.801Z,7.83
2019-01-12T14:14:19.706Z,7.82
2019-01-12T14:19:22.722Z,7.83
2019-01-12T14:24:24.266Z,7.84
2019-01-12T14:29:26.971Z,7.84
2019-01-12T14:34:28.495Z,7.87
2019-01-12T14:39:31.170Z,7.88
2019-01-12T14:44:32.708Z,7.99
2019-01-12T14:49:35.497Z,7.97
2019-01-12T14:54:37.018Z,7.96
2019-01-12T14:59:40.359Z,7.90
2019-01-12T15:04:41.874Z,7.84
2019-01-12T15:09:45.175Z,7.79
2019-01-12T15:14:46.690Z,7.75
2019-01-12T15:19:48.253Z,7.71
2019-01-12T15:24:49.823Z,7.70
2019-01-12T15:29:51.417Z,7.65
2019-01-12T15:34:53.152Z,7.60
2019-01-12T15:39:54.697Z,7.55
2019-01-12T15:44:56.246Z,7.52
2019-01-12T15:49:57.829Z,7.43
2019-01-12T15:54:59.367Z,7.25
2019-01-12T16:00:00.925Z,7.18
2019-01-12T16:05:02.937Z,7.07
2019-01-12T16:10:04.755Z,6.96
2019-01-12T16:15:09.384Z,6.95
2019-01-12T16:20:13.905Z,7.05
2019-01-12T16:25:15.425Z,7.11
2019-01-12T16:30:18.343Z,7.12
2019-01-12T16:35:19.911Z,7.15
2019-01-12T16:40:22.404Z,7.07
2019-01-12T16:45:23.965Z,7.07
2019-01-12T16:50:25.510Z,7.11
2019-01-12T16:55:27.248Z,7.14
2019-01-12T17:00:29.726Z,7.07
2019-01-12T17:05:31.355Z,7.04
2019-01-12T17:10:33.268Z,6.95
2019-01-12T17:15:35.189Z,7.01
2019-01-12T17:20:37.921Z,7.05
2019-01-12T17:25:39.451Z,7.12
2019-01-12T17:30:41.344Z,7.14
2019-01-12T17:35:43.275Z,7.18
2019-01-12T17:40:44.838Z,7.18
2019-01-12T17:45:46.508Z,7.18
2019-01-12T17:50:48.499Z,7.17
2019-01-12T17:55:51.201Z,7.19
2019-01-12T18:00:52.959Z,7.18
2019-01-12T18:05:55.873Z,7.20
2019-01-12T18:10:57.403Z,7.14
2019-01-12T18:16:00.047Z,7.19
2019-01-12T18:21:01.614Z,7.24
2019-01-12T18:26:03.216Z,7.24
2019-01-12T18:31:04.758Z,7.27
2019-01-12T18:36:07.452Z,7.31
2019-01-12T18:41:09.051Z,7.28
2019-01-12T18:46:12.297Z,7.30
2019-01-12T18:51:14.041Z,7.30
2019-01-12T18:56:15.575Z,7.27
2019-01-12T19:01:18.284Z,7.29
2019-01-12T19:06:19.910Z,7.31
2019-01-12T19:11:22.896Z,7.29
2019-01-12T19:16:24.518Z,7.27
2019-01-12T19:21:26.605Z,7.26
2019-01-12T19:26:28.295Z,7.24
2019-01-12T19:31:30.518Z,7.30
2019-01-12T19:36:32.210Z,7.31
2019-01-12T19:41:35.859Z,7.31
2019-01-12T19:46:37.792Z,7.33
2019-01-12T19:51:39.364Z,7.31
2019-01-12T19:56:40.907Z,7.31
2019-01-12T20:01:43.583Z,7.32
2019-01-12T20:06:45.178Z,7.34
2019-01-12T20:11:47.006Z,7.32
2019-01-12T20:16:49.782Z,7.34
2019-01-12T20:21:52.477Z,7.32
2019-01-12T20:26:55.891Z,7.33
2019-01-12T20:32:25.096Z,7.40
2019-01-12T20:38:04.146Z,7.40
2019-01-12T20:43:26.739Z,7.40
2019-01-12T20:48:51.983Z,7.42
2019-01-12T20:54:50.258Z,7.37
2019-01-12T21:00:45.899Z,7.35
2019-01-12T21:06:12.747Z,7.37
2019-01-12T21:12:14.091Z,7.39
2019-01-12T21:17:16.514Z,7.42
2019-01-12T21:22:18.145Z,7.40
2019-01-12T21:27:20.768Z,7.42
2019-01-12T21:32:22.734Z,7.43
2019-01-12T21:37:24.410Z,7.42
2019-01-12T21:42:25.962Z,7.42
2019-01-12T21:47:27.871Z,7.39
2019-01-12T21:52:29.415Z,7.40
2019-01-12T21:57:31.386Z,7.42
2019-01-12T22:02:33.309Z,7.42
2019-01-12T22:07:34.933Z,7.44
2019-01-12T22:12:36.465Z,7.45
2019-01-12T22:17:38.325Z,7.49
2019-01-12T22:22:39.971Z,7.49
2019-01-12T22:27:41.625Z,7.52
2019-01-12T22:32:43.247Z,7.47
2019-01-12T22:37:44.856Z,7.45
2019-01-12T22:42:46.996Z,7.44
2019-01-12T22:47:48.528Z,7.45
2019-01-12T22:52:50.758Z,7.47
2019-01-12T22:57:52.385Z,7.46
2019-01-12T23:02:53.995Z,7.46
2019-01-12T23:07:55.604Z,7.40
2019-01-12T23:12:57.208Z,7.40
2019-01-12T23:17:58.743Z,7.39
2019-01-12T23:23:00.355Z,7.41
2019-01-12T23:28:02.027Z,7.42
2019-01-12T23:33:03.690Z,7.45
2019-01-12T23:38:05.257Z,7.46
2019-01-12T23:43:06.836Z,7.45
2019-01-12T23:48:08.373Z,7.44
2019-01-12T23:53:10.023Z,7.44
2019-01-12T23:58:11.603Z,7.45
